createdAt,value
2023-04-18T00:02:17.196Z,20.40
2023-04-18T00:04:46.424Z,19.13
2023-04-18T00:07:16.321Z,17.23
2023-04-18T00:09:44.788Z,18.10
2023-04-18T00:12:13.221Z,22.93
2023-04-18T00:14:41.494Z,18.37
2023-04-18T00:17:10.402Z,19.77
2023-04-18T00:19:43.218Z,25.97
2023-04-18T00:22:11.631Z,21.37
2023-04-18T00:24:41.063Z,20.83
2023-04-18T00:27:09.384Z,24.03
2023-04-18T00:29:37.653Z,25.30
2023-04-18T00:32:06.317Z,22.13
2023-04-18T00:34:34.665Z,25.20
2023-04-18T00:37:04.355Z,19.40
2023-04-18T00:39:32.620Z,20.53
2023-04-18T00:42:01.251Z,25.67
2023-04-18T00:44:29.537Z,22.90
2023-04-18T00:46:57.787Z,21.80
2023-04-18T00:49:26.133Z,20.80
2023-04-18T00:51:54.830Z,18.50
2023-04-18T00:54:24.571Z,23.10
2023-04-18T00:56:52.813Z,23.90
2023-04-18T00:59:21.426Z,23.07
2023-04-18T01:01:49.781Z,21.80
2023-04-18T01:04:18.556Z,21.07
2023-04-18T01:06:47.144Z,22.67
2023-04-18T01:09:15.998Z,21.70
2023-04-18T01:11:45.677Z,20.23
2023-04-18T01:14:14.101Z,20.00
2023-04-18T01:16:44.077Z,24.20
2023-04-18T01:19:12.885Z,20.80
2023-04-18T01:21:43.843Z,21.27
2023-04-18T01:24:14.669Z,23.23
2023-04-18T01:26:44.847Z,20.20
2023-04-18T01:29:13.195Z,21.10
2023-04-18T01:31:41.874Z,26.87
2023-04-18T01:34:10.456Z,23.97
2023-04-18T01:36:39.435Z,23.97
2023-04-18T01:39:07.757Z,21.90
2023-04-18T01:41:37.504Z,22.43
2023-04-18T01:44:06.341Z,21.53
2023-04-18T01:46:34.705Z,22.33
2023-04-18T01:49:03.013Z,20.43
2023-04-18T01:51:31.359Z,25.67
2023-04-18T01:53:59.657Z,22.80
2023-04-18T01:56:27.984Z,18.73
2023-04-18T01:58:57.698Z,22.97
2023-04-18T02:01:26.089Z,20.80
2023-04-18T02:03:55.486Z,24.37
2023-04-18T02:06:23.932Z,20.90
2023-04-18T02:08:52.314Z,23.57
2023-04-18T02:11:20.713Z,23.70
2023-04-18T02:13:49.047Z,24.23
2023-04-18T02:16:18.771Z,21.97
2023-04-18T02:18:47.622Z,21.73
2023-04-18T02:21:15.890Z,23.80
2023-04-18T02:23:44.145Z,20.50
2023-04-18T02:26:12.447Z,20.03
2023-04-18T02:28:40.652Z,22.40
2023-04-18T02:31:14.493Z,20.70
2023-04-18T02:33:44.520Z,23.00
2023-04-18T02:36:13.835Z,22.03
2023-04-18T02:38:42.116Z,20.73
2023-04-18T02:41:15.006Z,20.73
2023-04-18T02:43:43.550Z,21.03
2023-04-18T02:46:11.830Z,22.93
2023-04-18T02:48:40.308Z,16.57
2023-04-18T02:51:10.788Z,22.23
2023-04-18T02:53:39.082Z,22.13
2023-04-18T02:56:08.797Z,18.40
2023-04-18T02:58:37.118Z,18.10
2023-04-18T03:01:05.642Z,21.23
2023-04-18T03:03:33.977Z,18.13
2023-04-18T03:06:02.220Z,17.00
2023-04-18T03:08:31.853Z,18.20
2023-04-18T03:11:00.207Z,18.57
2023-04-18T03:13:28.509Z,19.50
2023-04-18T03:15:56.856Z,13.77
2023-04-18T03:18:25.350Z,15.73
2023-04-18T03:20:53.650Z,18.60
2023-04-18T03:23:22.049Z,16.23
2023-04-18T03:25:51.649Z,18.97
2023-04-18T03:28:19.920Z,16.67
2023-04-18T03:30:48.451Z,15.37
2023-04-18T03:33:17.135Z,17.70
2023-04-18T03:35:45.497Z,19.23
2023-04-18T03:38:13.866Z,16.17
2023-04-18T03:40:44.318Z,17.03
2023-04-18T03:43:13.987Z,17.00
2023-04-18T03:45:42.281Z,18.07
2023-04-18T03:48:10.655Z,17.40
2023-04-18T03:50:38.967Z,19.43
2023-04-18T03:53:07.237Z,17.17
2023-04-18T03:55:35.513Z,15.57
2023-04-18T03:58:03.748Z,19.37
2023-04-18T04:00:33.629Z,20.40
2023-04-18T04:03:02.088Z,21.73
2023-04-18T04:05:30.514Z,16.33
2023-04-18T04:07:58.946Z,19.37
2023-04-18T04:10:27.238Z,14.57
2023-04-18T04:12:55.549Z,15.20
2023-04-18T04:15:23.780Z,18.30
2023-04-18T04:17:53.546Z,17.20
2023-04-18T04:20:24.750Z,21.00
2023-04-18T04:22:53.935Z,18.40
2023-04-18T04:25:23.882Z,17.73
2023-04-18T04:27:53.592Z,20.57
2023-04-18T04:30:22.245Z,19.37
2023-04-18T04:32:52.049Z,21.30
2023-04-18T04:35:20.464Z,19.63
2023-04-18T04:37:49.215Z,22.60
2023-04-18T04:40:17.602Z,23.10
2023-04-18T04:42:45.912Z,20.73
2023-04-18T04:45:14.815Z,22.13
2023-04-18T04:47:44.011Z,18.97
2023-04-18T04:50:15.749Z,23.43
2023-04-18T04:52:44.146Z,19.20
2023-04-18T04:55:12.514Z,20.07
2023-04-18T04:57:40.827Z,21.40
2023-04-18T05:00:11.170Z,19.53
2023-04-18T05:02:39.547Z,20.53
2023-04-18T05:05:08.675Z,21.87
2023-04-18T05:07:38.312Z,23.83
2023-04-18T05:10:07.478Z,18.10
2023-04-18T05:12:35.770Z,24.70
2023-04-18T05:15:04.195Z,22.97
2023-04-18T05:17:32.458Z,18.87
2023-04-18T05:20:01.073Z,19.77
2023-04-18T05:22:29.397Z,17.70
2023-04-18T05:24:59.031Z,19.93
2023-04-18T05:27:27.751Z,16.10
2023-04-18T05:29:56.112Z,18.90
2023-04-18T05:32:24.387Z,23.70
2023-04-18T05:34:52.700Z,21.70
2023-04-18T05:37:22.243Z,21.20
2023-04-18T05:39:50.532Z,23.10
2023-04-18T05:42:20.150Z,20.20
2023-04-18T05:44:48.441Z,19.97
2023-04-18T05:47:17.524Z,20.30
2023-04-18T05:49:45.808Z,18.37
2023-04-18T05:52:14.118Z,19.50
2023-04-18T05:54:42.409Z,20.27
2023-04-18T05:57:10.683Z,18.27
2023-04-18T05:59:40.382Z,18.53
2023-04-18T06:02:13.333Z,14.10
2023-04-18T06:04:42.392Z,16.33
2023-04-18T06:07:11.144Z,20.50
2023-04-18T06:09:39.414Z,21.80
2023-04-18T06:12:07.813Z,18.93
2023-04-18T06:14:36.072Z,20.17
2023-04-18T06:17:07.234Z,20.40
2023-04-18T06:19:35.519Z,15.83
2023-04-18T06:22:03.845Z,19.97
2023-04-18T06:24:32.158Z,16.07
2023-04-18T06:27:01.898Z,16.37
2023-04-18T06:29:33.252Z,28.23
2023-04-18T06:32:01.673Z,18.97
2023-04-18T06:34:31.479Z,18.30
2023-04-18T06:36:59.881Z,19.73
2023-04-18T06:39:28.888Z,15.47
2023-04-18T06:41:57.963Z,15.97
2023-04-18T06:44:26.366Z,16.50
2023-04-18T06:46:54.675Z,18.53
2023-04-18T06:49:26.352Z,22.30
2023-04-18T06:51:56.315Z,16.03
2023-04-18T06:54:24.611Z,22.60
2023-04-18T06:56:53.659Z,20.63
2023-04-18T06:59:23.312Z,18.93
2023-04-18T07:01:52.225Z,17.50
2023-04-18T07:04:20.658Z,18.13
2023-04-18T07:06:49.035Z,17.63
2023-04-18T07:09:18.687Z,21.13
2023-04-18T07:11:47.038Z,17.03
2023-04-18T07:14:15.504Z,20.90
2023-04-18T07:16:44.032Z,18.73
2023-04-18T07:19:12.304Z,17.80
2023-04-18T07:21:43.006Z,19.63
2023-04-18T07:24:11.456Z,18.40
2023-04-18T07:26:41.146Z,22.30
2023-04-18T07:29:09.388Z,16.33
2023-04-18T07:31:37.683Z,25.40
2023-04-18T07:34:06.243Z,19.17
2023-04-18T07:36:34.624Z,19.83
2023-04-18T07:39:03.634Z,38.03
2023-04-18T07:41:32.075Z,20.87
2023-04-18T07:44:01.907Z,18.67
2023-04-18T07:46:32.239Z,19.80
2023-04-18T07:49:02.125Z,17.90
2023-04-18T07:51:32.369Z,20.70
2023-04-18T07:54:00.728Z,16.93
2023-04-18T07:56:29.343Z,17.23
2023-04-18T07:58:57.641Z,24.57
2023-04-18T08:01:27.489Z,18.07
2023-04-18T08:03:57.891Z,15.77
2023-04-18T08:06:27.016Z,24.37
2023-04-18T08:08:55.364Z,21.03
2023-04-18T08:11:23.692Z,19.27
2023-04-18T08:13:51.998Z,17.03
2023-04-18T08:16:20.430Z,18.10
2023-04-18T08:18:50.239Z,23.00
2023-04-18T08:21:19.136Z,18.90
2023-04-18T08:23:47.472Z,17.70
2023-04-18T08:26:15.851Z,20.73
2023-04-18T08:28:46.281Z,15.00
2023-04-18T08:31:15.286Z,14.80
2023-04-18T08:33:43.773Z,16.33
2023-04-18T08:36:13.904Z,15.20
2023-04-18T08:38:42.277Z,19.40
2023-04-18T08:41:10.756Z,16.33
2023-04-18T08:43:39.386Z,19.60
2023-04-18T08:46:09.135Z,16.13
2023-04-18T08:48:37.991Z,17.93
2023-04-18T08:51:06.991Z,12.90
2023-04-18T08:53:36.638Z,14.77
2023-04-18T08:56:05.464Z,18.33
2023-04-18T08:58:34.911Z,32.53
2023-04-18T09:01:03.491Z,33.17
2023-04-18T09:03:41.641Z,102.20
2023-04-18T09:06:13.655Z,35.10
2023-04-18T09:08:44.524Z,19.83
2023-04-18T09:11:24.005Z,14.20
2023-04-18T09:13:53.104Z,41.83
2023-04-18T09:16:22.524Z,19.50
2023-04-18T09:19:12.078Z,17.90
2023-04-18T09:21:41.221Z,14.63
2023-04-18T09:24:21.002Z,41.93
2023-04-18T09:26:50.876Z,12.83
2023-04-18T09:29:22.352Z,26.90
2023-04-18T09:31:59.754Z,13.50
2023-04-18T09:34:28.691Z,14.13
2023-04-18T09:37:10.645Z,17.30
2023-04-18T09:39:43.073Z,16.33
2023-04-18T09:42:11.530Z,14.07
2023-04-18T09:44:39.873Z,12.60
2023-04-18T09:47:08.739Z,19.70
2023-04-18T09:49:37.004Z,15.23
2023-04-18T09:52:05.547Z,18.73
2023-04-18T09:54:33.821Z,15.80
2023-04-18T09:57:03.537Z,16.63
2023-04-18T09:59:38.996Z,17.20
2023-04-18T10:02:08.093Z,14.00
2023-04-18T10:04:37.054Z,13.30
2023-04-18T10:07:05.369Z,14.97
2023-04-18T10:09:33.794Z,16.47
2023-04-18T10:12:03.478Z,14.23
2023-04-18T10:14:31.980Z,15.70
2023-04-18T10:17:01.091Z,12.30
2023-04-18T10:19:30.706Z,15.00
2023-04-18T10:22:00.364Z,13.27
2023-04-18T10:24:53.283Z,15.10
2023-04-18T10:27:57.372Z,14.43
2023-04-18T10:30:54.746Z,17.60
2023-04-18T10:33:33.627Z,14.63
2023-04-18T10:36:20.405Z,15.00
2023-04-18T10:38:50.643Z,18.10
2023-04-18T10:41:22.329Z,15.13
2023-04-18T10:44:18.466Z,14.47
2023-04-18T10:47:23.620Z,16.27
2023-04-18T10:49:57.424Z,14.57
2023-04-18T10:52:26.341Z,15.70
2023-04-18T10:54:59.248Z,18.07
2023-04-18T10:57:38.600Z,16.13
2023-04-18T11:00:13.791Z,17.27
2023-04-18T11:02:48.583Z,13.17
2023-04-18T11:05:21.180Z,16.83
2023-04-18T11:07:49.595Z,16.03
2023-04-18T11:10:20.008Z,15.80
2023-04-18T11:12:48.482Z,14.57
2023-04-18T11:15:21.532Z,13.20
2023-04-18T11:18:00.401Z,13.87
2023-04-18T11:20:29.262Z,13.77
2023-04-18T11:22:58.745Z,15.00
2023-04-18T11:25:29.167Z,15.33
2023-04-18T11:28:00.016Z,15.73
2023-04-18T11:30:31.338Z,15.40
2023-04-18T11:32:59.731Z,14.73
2023-04-18T11:35:28.412Z,14.87
2023-04-18T11:37:56.716Z,20.03
2023-04-18T11:40:25.078Z,19.80
2023-04-18T11:42:55.279Z,18.80
2023-04-18T11:45:23.675Z,21.83
2023-04-18T11:47:57.011Z,14.70
2023-04-18T11:50:25.578Z,14.97
2023-04-18T11:52:54.815Z,13.00
2023-04-18T11:55:24.569Z,15.27
2023-04-18T11:57:53.822Z,15.80
2023-04-18T12:00:33.597Z,20.17
2023-04-18T12:03:04.583Z,14.70
2023-04-18T12:05:34.482Z,15.47
2023-04-18T12:08:10.199Z,15.70
2023-04-18T12:10:39.231Z,14.50
2023-04-18T12:13:08.657Z,14.67
2023-04-18T12:15:39.970Z,13.50
2023-04-18T12:18:09.763Z,16.97
2023-04-18T12:20:46.332Z,20.47
2023-04-18T12:23:30.850Z,24.80
2023-04-18T12:26:03.799Z,19.03
2023-04-18T12:28:32.413Z,17.37
2023-04-18T12:31:00.947Z,19.47
2023-04-18T12:33:31.766Z,19.33
2023-04-18T12:36:00.551Z,19.43
2023-04-18T12:38:28.825Z,20.33
2023-04-18T12:40:57.142Z,18.80
2023-04-18T12:43:25.734Z,17.20
2023-04-18T12:45:54.089Z,18.47
2023-04-18T12:48:22.375Z,17.57
2023-04-18T12:50:52.027Z,20.93
2023-04-18T12:53:20.350Z,18.43
2023-04-18T12:55:48.637Z,23.63
2023-04-18T12:58:18.736Z,16.80
2023-04-18T13:00:47.183Z,19.40
2023-04-18T13:03:15.584Z,14.03
2023-04-18T13:05:44.129Z,13.93
2023-04-18T13:08:17.768Z,19.90
2023-04-18T13:10:47.369Z,15.97
2023-04-18T13:13:15.740Z,14.70
2023-04-18T13:15:44.100Z,17.80
2023-04-18T13:18:12.355Z,25.80
2023-04-18T13:20:40.645Z,14.47
2023-04-18T13:23:08.989Z,13.53
2023-04-18T13:25:38.602Z,14.63
2023-04-18T13:28:07.021Z,17.23
2023-04-18T13:30:36.803Z,15.83
2023-04-18T13:33:05.307Z,12.30
2023-04-18T13:35:33.617Z,15.10
2023-04-18T13:38:01.958Z,14.60
2023-04-18T13:40:30.467Z,13.77
2023-04-18T13:43:00.151Z,14.00
2023-04-18T13:45:28.473Z,11.43
2023-04-18T13:47:56.830Z,14.80
2023-04-18T13:50:25.517Z,11.87
2023-04-18T13:52:54.693Z,11.97
2023-04-18T13:55:23.123Z,11.00
2023-04-18T13:57:51.394Z,16.53
2023-04-18T14:00:21.990Z,14.07
2023-04-18T14:02:50.881Z,16.03
2023-04-18T14:05:19.708Z,16.70
2023-04-18T14:07:48.833Z,13.23
2023-04-18T14:10:17.132Z,15.00
2023-04-18T14:12:45.454Z,13.40
2023-04-18T14:15:13.953Z,15.10
2023-04-18T14:17:45.800Z,13.37
2023-04-18T14:20:15.672Z,14.03
2023-04-18T14:22:44.083Z,14.80
2023-04-18T14:25:12.422Z,15.73
2023-04-18T14:27:40.641Z,14.13
2023-04-18T14:30:10.883Z,12.37
2023-04-18T14:32:39.294Z,13.33
2023-04-18T14:35:10.911Z,12.07
2023-04-18T14:37:39.235Z,14.80
2023-04-18T14:40:11.161Z,14.37
2023-04-18T14:42:39.452Z,16.60
2023-04-18T14:45:11.206Z,12.93
2023-04-18T14:47:40.100Z,13.77
2023-04-18T14:50:11.925Z,11.70
2023-04-18T14:52:40.393Z,15.30
2023-04-18T14:55:09.765Z,14.53
2023-04-18T14:57:38.389Z,11.30
2023-04-18T15:00:10.003Z,17.23
2023-04-18T15:02:38.517Z,11.97
2023-04-18T15:05:10.076Z,14.20
2023-04-18T15:07:38.557Z,13.67
2023-04-18T15:10:08.720Z,12.23
2023-04-18T15:12:36.992Z,12.90
2023-04-18T15:15:06.303Z,15.00
2023-04-18T15:17:34.716Z,11.77
2023-04-18T15:20:05.562Z,12.30
2023-04-18T15:22:35.404Z,11.27
2023-04-18T15:25:04.000Z,19.57
2023-04-18T15:27:32.278Z,11.03
2023-04-18T15:30:00.793Z,12.53
2023-04-18T15:32:29.142Z,10.87
2023-04-18T15:34:57.489Z,10.67
2023-04-18T15:37:26.285Z,10.43
2023-04-18T15:39:57.071Z,10.50
2023-04-18T15:42:25.440Z,9.00
2023-04-18T15:44:53.850Z,8.67
2023-04-18T15:47:22.184Z,8.17
2023-04-18T15:49:50.611Z,8.00
2023-04-18T15:52:18.837Z,11.40
2023-04-18T15:54:47.144Z,7.03
2023-04-18T15:57:17.083Z,7.17
2023-04-18T15:59:45.478Z,16.30
2023-04-18T16:02:13.951Z,6.80
2023-04-18T16:04:42.476Z,9.57
2023-04-18T16:07:10.965Z,8.83
2023-04-18T16:09:39.207Z,8.33
2023-04-18T16:12:08.184Z,6.70
2023-04-18T16:14:37.971Z,8.53
2023-04-18T16:17:06.231Z,8.63
2023-04-18T17:40:49.504Z,9.30
2023-04-18T17:43:18.165Z,5.00
2023-04-18T17:45:46.833Z,7.03
2023-04-18T17:48:16.292Z,7.07
2023-04-18T17:50:45.035Z,8.07
2023-04-18T17:53:13.588Z,4.87
2023-04-18T17:55:42.190Z,5.77
2023-04-18T17:58:12.183Z,6.60
2023-04-18T18:00:40.753Z,7.20
2023-04-18T18:03:13.546Z,4.70
2023-04-18T18:05:42.459Z,5.07
2023-04-18T18:08:11.060Z,5.80
2023-04-18T18:10:39.699Z,4.77
2023-04-18T18:13:08.393Z,4.83
2023-04-18T18:15:38.346Z,7.67
2023-04-18T18:18:07.200Z,4.30
2023-04-18T18:20:36.165Z,5.57
2023-04-18T18:23:04.806Z,5.80
2023-04-18T18:25:33.513Z,5.90
2023-04-18T18:28:03.331Z,6.97
2023-04-18T18:30:31.900Z,6.33
2023-04-18T18:33:03.440Z,6.07
2023-04-18T18:35:32.060Z,5.90
2023-04-18T18:38:00.592Z,5.40
2023-04-18T18:40:29.249Z,5.10
2023-04-18T18:42:57.792Z,8.23
2023-04-18T18:45:26.460Z,6.63
2023-04-18T18:47:55.351Z,6.37
2023-04-18T18:50:25.552Z,14.60
2023-04-18T18:52:54.143Z,5.23
2023-04-18T18:55:22.818Z,5.43
2023-04-18T18:57:51.527Z,6.33
2023-04-18T19:00:20.399Z,5.27
2023-04-18T19:02:49.082Z,7.40
2023-04-18T19:05:17.839Z,5.60
2023-04-18T19:07:48.276Z,10.30
2023-04-18T19:10:16.832Z,5.37
2023-04-18T19:12:45.605Z,7.20
2023-04-18T19:15:14.772Z,6.50
2023-04-18T19:17:43.399Z,4.40
2023-04-18T19:20:12.263Z,5.13
2023-04-18T19:22:40.800Z,4.80
2023-04-18T19:25:11.395Z,5.10
2023-04-18T19:27:40.024Z,6.23
2023-04-18T19:30:10.546Z,12.83
2023-04-18T19:32:39.220Z,4.33
2023-04-18T19:35:09.839Z,5.33
2023-04-18T19:37:38.514Z,8.60
2023-04-18T19:40:08.330Z,5.17
2023-04-18T19:42:38.303Z,6.83
2023-04-18T19:45:08.045Z,5.43
2023-04-18T19:47:36.903Z,8.13
2023-04-18T19:50:06.232Z,6.27
2023-04-18T19:52:35.001Z,6.13
2023-04-18T19:55:03.670Z,6.23
2023-04-18T19:57:32.856Z,8.13
2023-04-18T20:00:02.845Z,8.67
2023-04-18T20:02:31.564Z,6.00
2023-04-18T20:05:00.523Z,7.07
2023-04-18T20:07:29.437Z,8.13
2023-04-18T20:09:57.993Z,6.23
2023-04-18T20:12:26.579Z,5.73
2023-04-18T20:14:58.554Z,7.37
2023-04-18T20:17:30.613Z,7.13
2023-04-18T20:19:59.565Z,6.40
2023-04-18T20:22:28.198Z,5.67
2023-04-18T20:24:58.110Z,6.63
2023-04-18T20:27:27.007Z,5.83
2023-04-18T20:29:57.339Z,8.60
2023-04-18T20:32:28.038Z,5.93
2023-04-18T20:34:57.268Z,15.10
2023-04-18T20:37:27.674Z,8.40
2023-04-18T20:39:56.602Z,7.80
2023-04-18T20:42:25.144Z,6.83
2023-04-18T20:44:54.729Z,8.10
2023-04-18T20:47:23.431Z,8.40
2023-04-18T20:49:53.361Z,10.80
2023-04-18T20:52:21.975Z,10.93
2023-04-18T20:54:51.114Z,8.97
2023-04-18T20:57:20.560Z,7.53
2023-04-18T20:59:49.146Z,10.03
2023-04-18T21:02:17.857Z,9.50
2023-04-18T21:04:46.815Z,7.87
2023-04-18T21:07:16.868Z,9.83
2023-04-18T21:09:45.499Z,7.97
2023-04-18T21:12:14.172Z,9.27
2023-04-18T21:14:42.784Z,9.53
2023-04-18T21:17:16.954Z,11.43
2023-04-18T21:19:46.726Z,13.63
2023-04-18T21:22:17.087Z,9.00
2023-04-18T21:24:46.820Z,16.03
2023-04-18T21:27:16.295Z,7.80
2023-04-18T21:29:44.917Z,9.20
2023-04-18T21:32:13.501Z,10.63
2023-04-18T21:34:42.047Z,7.47
2023-04-18T21:37:10.613Z,15.03
2023-04-18T21:39:42.423Z,8.20
2023-04-18T21:42:11.305Z,12.40
2023-04-18T21:44:39.866Z,9.13
2023-04-18T21:47:08.383Z,16.73
2023-04-18T21:49:37.101Z,16.53
2023-04-18T21:52:05.942Z,14.70
2023-04-18T21:54:34.535Z,12.33
2023-04-18T21:57:05.940Z,16.93
2023-04-18T21:59:34.561Z,17.23
2023-04-18T22:02:03.235Z,12.50
2023-04-18T22:04:32.816Z,15.80
2023-04-18T22:07:01.521Z,11.23
2023-04-18T22:09:31.358Z,8.10
2023-04-18T22:11:59.968Z,10.70
2023-04-18T22:14:29.975Z,11.90
2023-04-18T22:16:58.893Z,11.47
2023-04-18T22:19:29.484Z,13.53
2023-04-18T22:21:58.163Z,12.33
2023-04-18T22:24:26.921Z,12.67
2023-04-18T22:26:55.548Z,18.20
2023-04-18T22:29:24.198Z,16.33
2023-04-18T22:31:54.113Z,11.40
2023-04-18T22:34:22.745Z,14.47
2023-04-18T22:36:51.353Z,15.50
2023-04-18T22:39:19.910Z,14.30
2023-04-18T22:41:48.511Z,9.20
2023-04-18T22:44:17.147Z,16.27
2023-04-18T22:46:48.024Z,12.10
2023-04-18T22:49:18.746Z,11.67
2023-04-18T22:51:47.427Z,8.67
2023-04-18T22:54:16.155Z,14.40
2023-04-18T22:56:44.906Z,6.27
2023-04-18T22:59:13.662Z,10.70
2023-04-18T23:01:42.391Z,7.90
2023-04-18T23:04:11.261Z,8.30
2023-04-18T23:06:41.447Z,10.37
2023-04-18T23:09:10.210Z,12.93
2023-04-18T23:11:38.821Z,7.00
2023-04-18T23:14:08.606Z,7.27
2023-04-18T23:16:37.178Z,8.07
2023-04-18T23:19:05.850Z,5.10
2023-04-18T23:21:34.430Z,6.30
2023-04-18T23:24:04.419Z,8.10
2023-04-18T23:26:33.004Z,4.70
2023-04-18T23:29:01.654Z,4.67
2023-04-18T23:31:32.761Z,9.27
2023-04-18T23:34:01.398Z,4.30
2023-04-18T23:36:29.978Z,6.30
2023-04-18T23:38:58.772Z,5.43
2023-04-18T23:41:28.958Z,5.40
2023-04-18T23:43:57.575Z,4.00
2023-04-18T23:46:26.541Z,4.20
2023-04-18T23:48:55.096Z,5.57
2023-04-18T23:51:23.714Z,7.60
2023-04-18T23:53:52.448Z,7.60
2023-04-18T23:56:21.745Z,10.17
2023-04-18T23:58:51.735Z,4.90
